Time;durP1;ratioP1;P1;durP2;ratioP2;P2;SDS_P1;SDS_P2;PMS_P1;PMS_P2;Temp;Humidity;BMP_temperature;BMP_pressure;BME280_temperature;BME280_humidity;BME280_pressure;Samples;Min_cycle;Max_cycle;Signal;HPM_P1;HPM_P2
2024/02/02 00:00:59;;;;;;;3.30;2.00;;;9.90;74.60;;;;;;2516847;54;22393;-69
2024/02/02 00:03:26;;;;;;;3.58;1.98;;;9.90;74.60;;;;;;2283593;55;20957;-70
2024/02/02 00:05:55;;;;;;;3.58;1.55;;;9.90;74.60;;;;;;2520533;54;21433;-69
2024/02/02 00:08:24;;;;;;;4.78;1.90;;;9.90;74.60;;;;;;2520863;54;20957;-68
2024/02/02 00:10:51;;;;;;;3.08;1.77;;;10.00;73.50;;;;;;2520494;54;21078;-69
2024/02/02 00:13:17;;;;;;;3.53;2.03;;;10.00;73.50;;;;;;2521158;54;20973;-70
2024/02/02 00:15:47;;;;;;;4.12;2.28;;;9.90;74.40;;;;;;2286666;55;20973;-67
2024/02/02 00:18:13;;;;;;;4.37;2.30;;;10.00;73.30;;;;;;2286907;55;21549;-68
2024/02/02 00:20:40;;;;;;;4.93;2.47;;;9.90;74.40;;;;;;2286822;55;21041;-69
2024/02/02 00:23:06;;;;;;;3.47;1.95;;;10.00;73.40;;;;;;2520504;54;20909;-67
2024/02/02 00:25:32;;;;;;;5.50;2.47;;;10.00;73.30;;;;;;2286983;56;20925;-69
2024/02/02 00:27:58;;;;;;;5.60;2.80;;;10.00;73.30;;;;;;2286134;55;21446;-67
2024/02/02 00:30:25;;;;;;;7.57;3.35;;;10.00;73.20;;;;;;2286700;55;21018;-67
2024/02/02 00:32:52;;;;;;;6.68;3.78;;;10.00;73.20;;;;;;2286393;56;21010;-67
2024/02/02 00:35:18;;;;;;;5.78;3.40;;;10.00;73.30;;;;;;2286313;55;21021;-68
2024/02/02 00:37:46;;;;;;;6.10;3.15;;;10.10;73.40;;;;;;2286393;55;20939;-68
2024/02/02 00:40:14;;;;;;;5.90;3.03;;;10.10;73.40;;;;;;2520818;54;20937;-70
2024/02/02 00:42:42;;;;;;;10.32;3.67;;;10.00;73.20;;;;;;2286677;55;20941;-68
2024/02/02 00:45:10;;;;;;;6.40;3.67;;;10.00;73.20;;;;;;2286574;55;21029;-69
2024/02/02 00:47:36;;;;;;;6.12;2.97;;;10.00;73.00;;;;;;2518956;54;21041;-68
2024/02/02 00:50:05;;;;;;;5.47;2.65;;;10.00;72.90;;;;;;2282816;56;20970;-68
2024/02/02 00:52:32;;;;;;;4.50;2.33;;;10.00;72.90;;;;;;2484524;55;20970;-68
2024/02/02 00:54:59;;;;;;;4.35;2.60;;;10.00;72.90;;;;;;2520450;54;21052;-67
2024/02/02 00:57:29;;;;;;;4.78;2.40;;;10.00;72.90;;;;;;2520342;54;20965;-68
2024/02/02 00:59:55;;;;;;;4.78;2.15;;;9.90;73.80;;;;;;2285852;55;21051;-69
2024/02/02 01:02:24;;;;;;;4.05;2.10;;;9.90;73.70;;;;;;2286964;55;20953;-67
2024/02/02 01:04:50;;;;;;;3.60;1.98;;;9.90;73.50;;;;;;2286501;55;20965;-69
2024/02/02 01:07:20;;;;;;;3.55;1.87;;;9.90;73.40;;;;;;2286556;55;21755;-69
2024/02/02 01:09:46;;;;;;;3.65;2.00;;;9.90;73.30;;;;;;2520097;54;20945;-69
2024/02/02 01:12:13;;;;;;;3.03;1.58;;;9.80;73.00;;;;;;2286451;55;21029;-69
2024/02/02 01:14:39;;;;;;;3.30;1.70;;;9.80;72.90;;;;;;2286295;55;21009;-69
2024/02/02 01:17:06;;;;;;;3.00;1.62;;;9.80;72.90;;;;;;2285668;55;20945;-67
2024/02/02 01:19:37;;;;;;;2.50;1.20;;;9.70;72.90;;;;;;2286199;55;20952;-67
2024/02/02 01:22:04;;;;;;;3.17;1.45;;;9.70;72.90;;;;;;2285973;55;21250;-67
2024/02/02 01:24:31;;;;;;;3.05;1.30;;;9.70;73.10;;;;;;2516103;54;20964;-69
2024/02/02 01:26:57;;;;;;;2.12;0.85;;;9.60;73.10;;;;;;2512326;54;20930;-69
2024/02/02 01:29:25;;;;;;;3.53;1.30;;;9.60;73.30;;;;;;2520251;54;21541;-67
2024/02/02 01:31:51;;;;;;;2.12;1.00;;;9.60;73.50;;;;;;2519146;54;21020;-67
2024/02/02 01:34:18;;;;;;;2.05;0.90;;;9.60;73.60;;;;;;2286127;55;20944;-68
2024/02/02 01:36:44;;;;;;;3.42;1.12;;;9.60;73.70;;;;;;2285942;55;20949;-69
2024/02/02 01:39:11;;;;;;;3.42;1.02;;;9.50;73.60;;;;;;2286327;55;20996;-68
2024/02/02 01:41:38;;;;;;;2.72;1.10;;;9.50;73.60;;;;;;2286033;55;21001;-67
2024/02/02 01:44:05;;;;;;;2.75;0.95;;;9.50;73.60;;;;;;2285047;55;21019;-69
2024/02/02 01:46:31;;;;;;;3.33;1.00;;;9.50;73.60;;;;;;2520028;54;21001;-69
2024/02/02 01:48:58;;;;;;;2.37;1.00;;;9.50;73.60;;;;;;2519429;54;21016;-69
2024/02/02 01:51:28;;;;;;;2.87;1.20;;;9.40;73.60;;;;;;2286432;55;20981;-70
2024/02/02 01:54:20;;;;;;;2.05;0.90;;;9.50;73.70;;;;;;2512686;54;21086;-67
2024/02/02 01:57:12;;;;;;;1.83;0.80;;;9.50;73.70;;;;;;2284333;55;20982;-68
2024/02/02 01:59:38;;;;;;;2.05;0.93;;;9.40;73.60;;;;;;2284283;55;21202;-69
2024/02/02 02:02:06;;;;;;;1.40;0.70;;;9.40;73.70;;;;;;2280131;56;21029;-69
2024/02/02 02:04:33;;;;;;;3.08;0.95;;;9.40;73.70;;;;;;2283582;55;21504;-68
2024/02/02 02:07:00;;;;;;;2.12;0.80;;;9.40;73.70;;;;;;2285432;55;21843;-67
2024/02/02 02:09:27;;;;;;;2.58;0.95;;;9.40;73.80;;;;;;2287569;55;20977;-70
2024/02/02 02:11:53;;;;;;;3.58;1.00;;;9.40;73.80;;;;;;2286404;55;21033;-66
2024/02/02 02:14:22;;;;;;;2.78;1.00;;;9.40;73.80;;;;;;2514255;54;21249;-67
2024/02/02 02:16:50;;;;;;;2.22;0.80;;;9.40;73.80;;;;;;2286708;55;21018;-69
2024/02/02 02:19:17;;;;;;;3.22;1.00;;;9.30;73.70;;;;;;2280219;55;20933;-68
2024/02/02 02:21:47;;;;;;;2.85;1.00;;;9.30;73.70;;;;;;2285381;55;21250;-68
2024/02/02 02:24:14;;;;;;;2.37;1.00;;;9.30;73.70;;;;;;2286060;55;20952;-67
2024/02/02 02:26:41;;;;;;;3.37;1.23;;;9.30;73.80;;;;;;2288173;55;20998;-67
2024/02/02 02:29:07;;;;;;;3.45;1.00;;;9.30;73.80;;;;;;2511988;54;20946;-68
2024/02/02 02:31:34;;;;;;;2.85;1.30;;;9.30;73.80;;;;;;2286981;55;21746;-68
2024/02/02 02:34:00;;;;;;;4.30;1.50;;;9.30;73.80;;;;;;2518934;54;21747;-67
2024/02/02 02:36:27;;;;;;;3.20;1.48;;;9.30;73.80;;;;;;2285594;55;20965;-67
2024/02/02 02:38:53;;;;;;;2.92;1.40;;;9.30;73.90;;;;;;2285008;55;21491;-70
2024/02/02 02:41:20;;;;;;;2.67;1.30;;;9.30;73.90;;;;;;2289409;55;20993;-68
2024/02/02 02:43:46;;;;;;;3.50;1.27;;;9.30;74.00;;;;;;2283406;56;20990;-67
2024/02/02 02:46:12;;;;;;;3.42;1.58;;;9.30;74.00;;;;;;2519273;54;21407;-68
2024/02/02 02:48:39;;;;;;;3.15;1.60;;;9.20;74.00;;;;;;2282239;56;21486;-68
2024/02/02 02:51:06;;;;;;;4.28;1.92;;;9.20;74.00;;;;;;2284870;55;20930;-67
2024/02/02 02:53:34;;;;;;;4.68;1.60;;;9.30;74.20;;;;;;2519868;54;20981;-69
2024/02/02 02:56:01;;;;;;;3.08;1.55;;;9.30;74.20;;;;;;2281472;55;20970;-68
2024/02/02 02:58:27;;;;;;;2.87;1.37;;;9.30;74.30;;;;;;2520401;54;20942;-68
2024/02/02 03:00:53;;;;;;;3.90;1.90;;;9.30;74.30;;;;;;2286012;55;20939;-67
2024/02/02 03:03:20;;;;;;;3.90;2.08;;;9.30;74.20;;;;;;2520408;54;21265;-69
2024/02/02 03:05:50;;;;;;;4.07;1.90;;;9.30;74.20;;;;;;2519595;54;20941;-67
2024/02/02 03:08:18;;;;;;;4.37;2.15;;;9.30;74.20;;;;;;2519648;54;21017;-67
2024/02/02 03:10:44;;;;;;;4.22;2.15;;;9.30;74.30;;;;;;2520560;54;20988;-69
2024/02/02 03:13:11;;;;;;;5.78;2.70;;;9.30;74.30;;;;;;2284957;55;21530;-69
2024/02/02 03:15:41;;;;;;;5.05;2.62;;;9.40;74.30;;;;;;2519723;54;21747;-68
2024/02/02 03:18:09;;;;;;;5.30;3.00;;;9.40;74.30;;;;;;2520232;54;20953;-69
2024/02/02 03:20:39;;;;;;;5.20;2.42;;;9.40;74.30;;;;;;2286650;55;20993;-69
2024/02/02 03:23:05;;;;;;;4.03;2.15;;;9.40;74.30;;;;;;2520471;54;21494;-68
2024/02/02 03:25:31;;;;;;;3.90;1.98;;;9.40;74.30;;;;;;2520510;54;21217;-69
2024/02/02 03:27:58;;;;;;;6.05;2.40;;;9.40;74.30;;;;;;2286089;55;21033;-68
2024/02/02 03:30:27;;;;;;;3.97;2.10;;;9.40;74.30;;;;;;2286409;55;20953;-67
2024/02/02 03:32:53;;;;;;;4.03;1.90;;;9.40;75.00;;;;;;2286422;55;21319;-68
2024/02/02 03:35:24;;;;;;;2.90;1.50;;;9.40;74.30;;;;;;2285617;55;20974;-69
2024/02/02 03:37:50;;;;;;;3.10;1.60;;;9.40;74.30;;;;;;2520833;54;20956;-67
2024/02/02 03:40:16;;;;;;;4.20;1.90;;;9.40;74.30;;;;;;2515303;54;20994;-67
2024/02/02 03:42:43;;;;;;;3.05;1.85;;;9.50;74.30;;;;;;2282286;56;20925;-67
2024/02/02 03:45:09;;;;;;;3.90;2.08;;;9.40;74.20;;;;;;2519731;54;20926;-67
2024/02/02 03:47:36;;;;;;;3.58;1.75;;;9.50;74.30;;;;;;2286969;56;20953;-69
2024/02/02 03:50:03;;;;;;;3.30;1.50;;;9.50;74.30;;;;;;2287229;55;21118;-69
2024/02/02 03:52:30;;;;;;;3.08;1.45;;;9.50;74.20;;;;;;2282212;55;20932;-68
2024/02/02 03:54:56;;;;;;;3.20;1.50;;;9.50;74.00;;;;;;2286498;55;20933;-68
2024/02/02 03:57:22;;;;;;;3.92;1.75;;;9.50;73.90;;;;;;2285959;55;21296;-67
2024/02/02 03:59:53;;;;;;;3.70;1.90;;;9.50;73.80;;;;;;2285657;55;21818;-70
2024/02/02 04:02:20;;;;;;;3.40;1.77;;;9.50;73.80;;;;;;2285876;55;20957;-67
2024/02/02 04:04:46;;;;;;;3.25;1.75;;;9.40;73.60;;;;;;2286434;55;20985;-70
2024/02/02 04:07:12;;;;;;;3.28;1.40;;;9.40;73.50;;;;;;2286127;55;20945;-68
2024/02/02 04:09:39;;;;;;;2.83;1.42;;;9.40;73.50;;;;;;2521063;54;21857;-69
2024/02/02 04:12:05;;;;;;;3.65;1.70;;;9.40;73.40;;;;;;2285596;55;21317;-69
2024/02/02 04:14:32;;;;;;;3.37;1.45;;;9.40;73.40;;;;;;2286434;55;20997;-68
2024/02/02 04:17:01;;;;;;;3.17;1.67;;;9.40;73.40;;;;;;2284840;55;20949;-69
2024/02/02 04:19:28;;;;;;;3.00;1.48;;;9.40;73.40;;;;;;2286621;55;20989;-68
2024/02/02 04:21:54;;;;;;;3.58;1.90;;;9.40;73.30;;;;;;2284956;56;21481;-68
2024/02/02 04:24:21;;;;;;;3.20;1.80;;;9.30;73.20;;;;;;2285684;55;20948;-69
2024/02/02 04:26:47;;;;;;;3.83;1.60;;;9.30;73.10;;;;;;2520550;54;20945;-67
2024/02/02 04:29:14;;;;;;;3.75;1.92;;;9.30;73.10;;;;;;2286840;55;20966;-68
2024/02/02 04:31:43;;;;;;;5.10;2.12;;;9.30;73.20;;;;;;2513127;54;21446;-67
2024/02/02 04:34:12;;;;;;;3.83;2.12;;;9.30;73.20;;;;;;2520125;54;20961;-68
2024/02/02 04:36:39;;;;;;;4.70;2.35;;;9.20;73.20;;;;;;2286205;55;20922;-67
2024/02/02 04:39:05;;;;;;;4.10;2.45;;;9.20;73.30;;;;;;2285598;55;20964;-69
2024/02/02 04:41:32;;;;;;;4.53;2.47;;;9.20;73.40;;;;;;2519541;54;21859;-68
2024/02/02 04:43:58;;;;;;;6.22;3.87;;;9.20;73.50;;;;;;2519981;54;20942;-67
2024/02/02 04:46:25;;;;;;;5.62;3.20;;;9.20;73.60;;;;;;2286214;55;21495;-70
2024/02/02 04:48:52;;;;;;;5.80;3.15;;;9.20;73.80;;;;;;2519523;54;20977;-69
2024/02/02 04:51:18;;;;;;;6.97;3.75;;;9.20;73.90;;;;;;2284747;55;21001;-67
2024/02/02 04:53:44;;;;;;;5.80;3.90;;;9.20;74.00;;;;;;2286280;55;21454;-68
2024/02/02 04:56:11;;;;;;;5.55;3.35;;;9.20;74.10;;;;;;2284113;55;20977;-67
2024/02/02 04:58:37;;;;;;;6.03;3.45;;;9.20;74.20;;;;;;2283170;55;21048;-69
2024/02/02 05:01:03;;;;;;;6.30;3.50;;;9.20;74.30;;;;;;2519323;54;20977;-69
2024/02/02 05:03:31;;;;;;;6.85;4.20;;;9.20;74.50;;;;;;2284134;55;21009;-67
2024/02/02 05:05:58;;;;;;;5.18;3.28;;;9.20;74.50;;;;;;2284496;55;21033;-69
2024/02/02 05:08:24;;;;;;;5.68;3.60;;;9.40;74.80;;;;;;2518515;54;21253;-68
2024/02/02 05:10:51;;;;;;;5.07;2.90;;;9.30;74.80;;;;;;2284727;55;20977;-70
2024/02/02 05:13:17;;;;;;;4.95;3.10;;;9.30;74.70;;;;;;2284367;55;20933;-70
2024/02/02 05:15:46;;;;;;;6.53;3.90;;;9.30;74.80;;;;;;2285319;55;21581;-67
2024/02/02 05:18:12;;;;;;;8.60;4.37;;;9.30;74.80;;;;;;2519195;54;20921;-68
2024/02/02 05:20:39;;;;;;;7.18;4.55;;;9.30;74.80;;;;;;2519626;54;21784;-68
2024/02/02 05:23:05;;;;;;;9.68;5.00;;;9.40;75.00;;;;;;2284803;55;21842;-69
2024/02/02 05:25:32;;;;;;;8.93;4.90;;;9.40;75.10;;;;;;2520006;54;21303;-69
2024/02/02 05:27:59;;;;;;;8.57;4.62;;;9.40;75.10;;;;;;2285527;55;20945;-67
2024/02/02 05:30:25;;;;;;;8.05;5.07;;;9.50;75.30;;;;;;2285912;55;20937;-67
2024/02/02 05:32:51;;;;;;;9.38;5.78;;;9.50;75.40;;;;;;2285002;55;21000;-68
2024/02/02 05:35:18;;;;;;;12.23;6.90;;;9.50;75.40;;;;;;2283952;55;21046;-67
2024/02/02 05:37:44;;;;;;;11.43;6.28;;;9.60;75.60;;;;;;2283099;55;20977;-69
2024/02/02 05:40:10;;;;;;;11.05;6.70;;;9.60;75.60;;;;;;2285833;55;21818;-68
2024/02/02 05:42:40;;;;;;;13.00;6.82;;;9.60;75.70;;;;;;2519440;54;21005;-68
2024/02/02 05:45:06;;;;;;;9.88;6.28;;;9.60;75.80;;;;;;2518355;54;20949;-68
2024/02/02 05:47:34;;;;;;;11.93;7.25;;;9.70;75.90;;;;;;2285513;55;20949;-68
2024/02/02 05:50:01;;;;;;;12.35;7.00;;;9.80;76.70;;;;;;2514256;54;20934;-67
2024/02/02 05:52:37;;;;;;;10.32;6.00;;;9.80;76.00;;;;;;2281564;56;21009;-69
2024/02/02 05:55:04;;;;;;;10.43;6.05;;;9.80;76.00;;;;;;2514592;54;20992;-68
2024/02/02 05:57:31;;;;;;;11.73;6.87;;;9.90;76.20;;;;;;2280600;56;21002;-70
2024/02/02 05:59:58;;;;;;;10.00;5.93;;;9.90;76.20;;;;;;2517637;54;20930;-67
2024/02/02 06:02:25;;;;;;;10.63;6.07;;;9.90;76.20;;;;;;2285444;55;20953;-69
2024/02/02 06:04:51;;;;;;;7.57;4.80;;;10.00;75.20;;;;;;2285366;55;20969;-68
2024/02/02 06:07:18;;;;;;;9.25;5.55;;;10.10;75.30;;;;;;2284973;55;20965;-68
2024/02/02 06:09:44;;;;;;;8.75;5.22;;;10.10;75.30;;;;;;2519883;54;21975;-69
2024/02/02 06:12:11;;;;;;;8.30;5.35;;;10.10;75.20;;;;;;2285451;55;21009;-68
2024/02/02 06:14:37;;;;;;;9.23;5.47;;;10.20;75.20;;;;;;2520068;54;21438;-67
2024/02/02 06:17:06;;;;;;;10.98;6.20;;;10.20;75.20;;;;;;2285747;55;21292;-68
2024/02/02 06:19:32;;;;;;;10.18;6.10;;;10.30;75.30;;;;;;2520982;54;20977;-69
2024/02/02 06:21:59;;;;;;;9.93;6.53;;;10.30;75.20;;;;;;2289162;55;21161;-69
2024/02/02 06:24:26;;;;;;;10.63;6.47;;;10.40;75.30;;;;;;2278089;56;21028;-67
2024/02/02 06:26:52;;;;;;;9.85;6.03;;;10.40;75.20;;;;;;2520834;54;20933;-68
2024/02/02 06:29:18;;;;;;;10.18;6.30;;;10.40;75.10;;;;;;2285777;55;20993;-68
2024/02/02 06:31:45;;;;;;;10.00;6.47;;;10.40;75.10;;;;;;2286494;55;21004;-68
2024/02/02 06:34:11;;;;;;;10.48;5.60;;;10.50;75.20;;;;;;2286007;56;20951;-69
2024/02/02 06:36:38;;;;;;;8.85;5.30;;;10.50;75.20;;;;;;2286460;55;22198;-69
2024/02/02 06:39:06;;;;;;;9.70;6.25;;;10.60;75.20;;;;;;2285743;55;21020;-67
2024/02/02 06:41:33;;;;;;;11.52;6.07;;;10.60;75.20;;;;;;2289353;55;21035;-68
2024/02/02 06:43:59;;;;;;;9.63;6.12;;;10.60;75.20;;;;;;2284440;55;21329;-70
2024/02/02 06:46:25;;;;;;;10.40;6.85;;;10.60;75.10;;;;;;2286000;55;21002;-68
2024/02/02 06:48:52;;;;;;;11.40;7.05;;;10.60;75.10;;;;;;2514897;54;20953;-68
2024/02/02 06:51:18;;;;;;;11.82;6.90;;;10.70;75.20;;;;;;2285582;55;20944;-67
2024/02/02 06:53:46;;;;;;;11.00;7.37;;;10.70;75.20;;;;;;2286497;55;21025;-69
2024/02/02 06:59:44;;;;;;;15.50;9.20;;;10.80;75.20;;;;;;2286038;55;20944;-69
2024/02/02 07:02:18;;;;;;;13.05;8.07;;;10.90;74.30;;;;;;2518839;54;20934;-68
2024/02/02 07:04:48;;;;;;;14.68;8.50;;;10.90;74.70;;;;;;2286131;55;20953;-69
2024/02/02 07:07:15;;;;;;;16.98;9.65;;;10.90;74.80;;;;;;2285384;55;20980;-70
2024/02/02 07:09:45;;;;;;;16.00;9.52;;;10.90;74.80;;;;;;2286314;55;20961;-69
2024/02/02 07:12:16;;;;;;;13.00;8.07;;;10.90;74.80;;;;;;2517098;54;21544;-67
2024/02/02 07:14:48;;;;;;;13.77;6.95;;;10.90;74.70;;;;;;2284953;56;20966;-69
2024/02/02 07:17:37;;;;;;;11.25;7.15;;;10.90;74.60;;;;;;2281791;56;20969;-67
2024/02/02 07:20:18;;;;;;;10.32;6.45;;;11.00;74.50;;;;;;2510543;55;20942;-69
2024/02/02 07:22:45;;;;;;;9.75;6.12;;;11.00;74.60;;;;;;2285698;55;21818;-68
2024/02/02 07:25:13;;;;;;;9.35;6.00;;;11.00;74.60;;;;;;2286359;55;20997;-68
2024/02/02 07:28:36;;;;;;;11.45;6.12;;;11.00;74.70;;;;;;2519872;54;20952;-68
2024/02/02 07:31:04;;;;;;;7.87;4.78;;;11.00;74.00;;;;;;2285889;55;20917;-68
2024/02/02 07:33:41;;;;;;;9.27;5.47;;;11.00;74.50;;;;;;2520124;54;20941;-68
2024/02/02 07:36:12;;;;;;;7.78;5.10;;;11.00;74.30;;;;;;2285558;55;21000;-67
2024/02/02 07:38:54;;;;;;;7.95;4.57;;;11.10;74.60;;;;;;2521091;54;20965;-69
2024/02/02 07:41:31;;;;;;;7.65;4.37;;;11.10;74.30;;;;;;2286581;56;21081;-70
2024/02/02 07:44:01;;;;;;;9.68;5.40;;;11.10;74.60;;;;;;2508243;55;21094;-69
2024/02/02 07:46:31;;;;;;;7.90;5.03;;;11.10;74.70;;;;;;2520161;54;21748;-70
2024/02/02 07:48:58;;;;;;;8.07;4.65;;;11.10;74.70;;;;;;2519988;54;21037;-68
2024/02/02 07:51:26;;;;;;;8.38;4.72;;;11.10;74.70;;;;;;2286230;55;21487;-69
2024/02/02 07:53:53;;;;;;;6.80;4.50;;;11.20;74.90;;;;;;2520630;54;21015;-70
2024/02/02 07:56:23;;;;;;;7.75;4.72;;;11.20;74.90;;;;;;2285560;55;20937;-68
2024/02/02 07:58:50;;;;;;;6.80;4.22;;;11.20;74.90;;;;;;2520016;54;21006;-71
2024/02/02 08:01:16;;;;;;;7.55;3.80;;;11.20;74.90;;;;;;2280886;55;21754;-67
2024/02/02 08:03:44;;;;;;;7.25;4.62;;;11.20;74.80;;;;;;2285356;55;21368;-68
2024/02/02 08:06:12;;;;;;;6.90;4.07;;;11.20;74.80;;;;;;2286800;55;21012;-70
2024/02/02 08:08:38;;;;;;;6.97;4.28;;;11.30;74.90;;;;;;2520494;54;21458;-69
2024/02/02 08:11:05;;;;;;;6.47;4.00;;;11.30;74.90;;;;;;2285893;55;20945;-68
2024/02/02 08:13:31;;;;;;;7.40;5.03;;;11.30;74.90;;;;;;2285935;55;20961;-68
2024/02/02 08:15:58;;;;;;;6.10;4.28;;;11.30;74.80;;;;;;2520187;54;21311;-69
2024/02/02 08:18:25;;;;;;;6.72;4.25;;;11.40;74.90;;;;;;2285220;55;21411;-68
2024/02/02 08:20:51;;;;;;;5.97;3.87;;;11.40;74.90;;;;;;2286120;55;21803;-69
2024/02/02 08:23:17;;;;;;;8.02;4.60;;;11.40;74.80;;;;;;2281418;56;21001;-68
2024/02/02 08:25:44;;;;;;;6.78;4.37;;;11.40;74.80;;;;;;2286078;55;20937;-67
2024/02/02 08:28:10;;;;;;;7.25;4.60;;;11.40;74.70;;;;;;2520314;54;20948;-69
2024/02/02 08:30:36;;;;;;;6.62;3.87;;;11.40;74.70;;;;;;2286394;55;21332;-70
2024/02/02 08:33:03;;;;;;;7.57;4.22;;;11.50;75.40;;;;;;2286456;55;21025;-68
2024/02/02 08:35:29;;;;;;;7.15;4.03;;;11.50;74.70;;;;;;2285719;55;20949;-68
2024/02/02 08:37:57;;;;;;;7.47;4.03;;;11.50;74.60;;;;;;2285811;55;20964;-69
2024/02/02 08:40:44;;;;;;;6.70;4.10;;;11.50;74.50;;;;;;2285858;55;20941;-69
2024/02/02 08:43:12;;;;;;;6.80;3.97;;;11.60;74.20;;;;;;2283956;55;20950;-69
2024/02/02 08:46:22;;;;;;;8.60;5.05;;;11.60;74.50;;;;;;2518701;54;21045;-69
2024/02/02 08:48:49;;;;;;;10.95;6.07;;;11.60;73.90;;;;;;2284609;55;21343;-67
2024/02/02 08:51:46;;;;;;;12.37;7.50;;;11.60;74.60;;;;;;2286181;55;20992;-70
2024/02/02 08:54:28;;;;;;;12.35;6.80;;;11.60;74.50;;;;;;2519636;54;21420;-68
2024/02/02 09:00:36;;;;;;;9.40;5.68;;;11.60;74.50;;;;;;2520487;54;20977;-70
2024/02/02 09:03:46;;;;;;;6.82;3.75;;;11.70;74.00;;;;;;2286897;55;21014;-69
2024/02/02 09:06:58;;;;;;;6.87;4.03;;;11.80;74.40;;;;;;2518711;54;21793;-69
2024/02/02 09:09:25;;;;;;;7.00;3.87;;;11.80;74.40;;;;;;2284922;55;21445;-68
2024/02/02 09:11:52;;;;;;;7.55;4.47;;;11.80;75.10;;;;;;2518943;54;21533;-68
2024/02/02 09:14:19;;;;;;;8.00;4.47;;;11.80;75.20;;;;;;2519472;54;20945;-68
2024/02/02 09:16:49;;;;;;;6.45;4.60;;;11.90;75.30;;;;;;2285895;55;21477;-68
2024/02/02 09:19:58;;;;;;;7.00;5.18;;;11.90;75.20;;;;;;2288483;55;21320;-70
2024/02/02 09:22:27;;;;;;;6.87;4.53;;;11.90;74.50;;;;;;2513436;54;21005;-69
2024/02/02 09:24:54;;;;;;;6.80;4.30;;;12.00;75.30;;;;;;2286428;55;21277;-69
2024/02/02 09:27:32;;;;;;;6.75;4.55;;;12.00;75.20;;;;;;2285348;55;20981;-69
2024/02/02 09:29:58;;;;;;;6.55;4.10;;;12.00;74.80;;;;;;2286217;55;21028;-69
2024/02/02 09:32:24;;;;;;;7.40;4.65;;;12.10;75.20;;;;;;2286177;55;20949;-69
2024/02/02 09:34:52;;;;;;;7.55;4.72;;;12.10;75.10;;;;;;2287161;55;21166;-70
2024/02/02 09:37:26;;;;;;;6.15;3.97;;;12.10;75.10;;;;;;2286603;55;20986;-70
2024/02/02 09:39:55;;;;;;;5.93;3.85;;;12.20;75.00;;;;;;2281464;56;20974;-68
2024/02/02 09:42:53;;;;;;;5.50;3.47;;;12.20;75.00;;;;;;2281738;56;21105;-69
2024/02/02 09:45:34;;;;;;;6.97;3.75;;;12.20;74.80;;;;;;2282344;55;20940;-68
2024/02/02 09:48:19;;;;;;;6.35;3.92;;;12.20;74.90;;;;;;2286259;55;21064;-70
2024/02/02 09:57:01;;;;;;;6.20;3.80;;;12.30;74.70;;;;;;2282593;55;21065;-70
2024/02/02 09:59:49;;;;;;;5.65;3.33;;;12.40;74.00;;;;;;2519698;54;20943;-70
2024/02/02 10:04:59;;;;;;;6.60;4.07;;;12.40;74.80;;;;;;2517501;54;20977;-68
2024/02/02 10:07:36;;;;;;;5.05;2.97;;;12.40;74.50;;;;;;2518871;54;21033;-70
2024/02/02 10:10:25;;;;;;;5.30;3.53;;;12.50;74.60;;;;;;2289225;55;21728;-68
2024/02/02 10:13:21;;;;;;;5.75;3.72;;;12.40;74.50;;;;;;2281651;55;21013;-70
2024/02/02 10:16:10;;;;;;;7.00;3.70;;;12.50;74.50;;;;;;2520282;54;21441;-68
2024/02/02 10:19:01;;;;;;;6.85;3.78;;;12.50;74.40;;;;;;2286789;55;22355;-70
2024/02/02 10:24:23;;;;;;;6.50;3.92;;;12.50;74.40;;;;;;2520606;54;21821;-68
2024/02/02 10:27:10;;;;;;;5.07;3.25;;;12.50;73.70;;;;;;2286503;55;21427;-68
2024/02/02 10:30:17;;;;;;;7.78;3.65;;;12.50;74.30;;;;;;2285266;55;21315;-69
2024/02/02 10:34:50;;;;;;;5.90;3.80;;;12.60;74.30;;;;;;2520545;54;20965;-67
2024/02/02 10:37:52;;;;;;;8.30;4.50;;;12.60;73.90;;;;;;2285745;55;20941;-67
2024/02/02 10:44:01;;;;;;;6.23;4.13;;;12.60;73.90;;;;;;2286330;55;20964;-68
2024/02/02 10:48:26;;;;;;;5.45;3.40;;;12.70;74.40;;;;;;2514450;54;20993;-67
2024/02/02 10:51:18;;;;;;;4.75;3.00;;;12.70;74.40;;;;;;2285702;55;21525;-70
2024/02/02 10:53:50;;;;;;;;;;;12.70;74.20;;;;;;2514788;55;20949;-69
2024/02/02 10:57:28;;;;;;;5.40;3.40;;;12.70;73.70;;;;;;2513784;54;20072;-68
2024/02/02 11:02:40;;;;;;;6.10;3.75;;;12.70;73.90;;;;;;2288443;55;21845;-69
2024/02/02 11:05:25;;;;;;;4.97;3.28;;;12.80;74.70;;;;;;2520720;54;21009;-69
2024/02/02 11:07:58;;;;;;;5.90;3.90;;;12.80;75.00;;;;;;2520592;54;20921;-69
2024/02/02 11:10:34;;;;;;;6.93;4.05;;;12.80;75.30;;;;;;2285747;55;20997;-69
2024/02/02 11:13:30;;;;;;;6.40;4.37;;;12.90;75.70;;;;;;2285580;55;21427;-69
2024/02/02 11:17:06;;;;;;;7.03;4.68;;;12.90;75.70;;;;;;2520324;54;20981;-69
2024/02/02 11:19:44;;;;;;;6.62;4.22;;;13.00;75.30;;;;;;2285700;55;21446;-67
2024/02/02 11:22:18;;;;;;;6.55;4.47;;;13.10;76.40;;;;;;2514598;54;21059;-68
2024/02/02 11:25:41;;;;;;;10.73;6.00;;;13.10;76.50;;;;;;2516905;54;21376;-68
2024/02/02 11:28:15;;;;;;;7.28;4.95;;;13.20;76.00;;;;;;2286668;55;21021;-68
2024/02/02 11:31:06;;;;;;;7.97;4.97;;;13.20;76.40;;;;;;2285528;55;20949;-68
2024/02/02 11:34:29;;;;;;;7.72;4.53;;;13.30;76.40;;;;;;2285111;55;20934;-70
2024/02/02 11:37:56;;;;;;;6.47;4.37;;;13.40;75.30;;;;;;2286353;55;21035;-68
2024/02/02 11:40:24;;;;;;;5.82;3.95;;;13.40;75.20;;;;;;2519716;54;21773;-68
2024/02/02 11:42:56;;;;;;;6.43;4.47;;;13.50;76.40;;;;;;2520750;54;21012;-70
2024/02/02 11:45:25;;;;;;;6.78;4.12;;;13.50;76.30;;;;;;2286933;55;20957;-72
2024/02/02 11:48:04;;;;;;;6.68;4.00;;;13.60;76.20;;;;;;2286352;55;20932;-70
2024/02/02 11:50:37;;;;;;;6.18;4.20;;;13.60;75.50;;;;;;2286397;55;20933;-69
2024/02/02 11:53:12;;;;;;;6.35;4.18;;;13.60;75.60;;;;;;2520448;54;20996;-68
2024/02/02 11:55:47;;;;;;;5.45;3.70;;;13.70;75.50;;;;;;2288936;55;21013;-68
2024/02/02 11:58:15;;;;;;;5.30;3.53;;;13.70;75.40;;;;;;2280397;55;21447;-69
2024/02/02 12:01:15;;;;;;;6.28;3.53;;;13.70;75.60;;;;;;2520049;54;21873;-69
2024/02/02 12:04:03;;;;;;;5.45;3.78;;;13.70;74.70;;;;;;2286527;55;21018;-68
2024/02/02 12:06:31;;;;;;;5.78;3.70;;;13.80;75.00;;;;;;2515857;54;20937;-69
2024/02/02 12:09:44;;;;;;;5.40;3.72;;;13.80;75.40;;;;;;2520311;54;20981;-68
2024/02/02 12:12:14;;;;;;;5.37;3.47;;;13.80;74.50;;;;;;2286934;55;20985;-69
2024/02/02 12:14:52;;;;;;;5.45;3.83;;;13.80;75.40;;;;;;2520391;54;20967;-68
2024/02/02 12:17:21;;;;;;;6.15;3.87;;;13.90;75.10;;;;;;2286629;55;20949;-68
2024/02/02 12:19:47;;;;;;;6.35;3.97;;;13.90;75.50;;;;;;2285710;55;21066;-68
2024/02/02 12:22:15;;;;;;;7.60;4.62;;;13.90;75.60;;;;;;2286622;55;21009;-68
2024/02/02 12:24:45;;;;;;;7.22;4.20;;;13.90;75.50;;;;;;2286296;55;20988;-68
2024/02/02 12:27:11;;;;;;;6.18;3.65;;;14.00;75.60;;;;;;2286035;55;20977;-68
2024/02/02 12:29:38;;;;;;;6.07;3.60;;;14.00;75.90;;;;;;2520106;54;20957;-68
2024/02/02 12:32:08;;;;;;;5.32;3.53;;;14.10;76.10;;;;;;2285636;55;20953;-68
2024/02/02 12:34:37;;;;;;;5.10;3.47;;;14.10;76.00;;;;;;2286205;55;21048;-69
2024/02/02 12:37:04;;;;;;;5.90;3.58;;;14.10;76.00;;;;;;2520267;54;20945;-69
2024/02/02 12:39:31;;;;;;;5.22;3.10;;;14.20;76.10;;;;;;2286053;55;21410;-68
2024/02/02 12:41:58;;;;;;;5.25;3.10;;;14.20;76.10;;;;;;2286085;55;20954;-68
2024/02/02 12:44:26;;;;;;;5.82;3.90;;;14.30;75.90;;;;;;2520469;54;20953;-70
2024/02/02 12:46:52;;;;;;;5.65;3.50;;;14.30;75.60;;;;;;2286098;55;21277;-69
2024/02/02 12:49:21;;;;;;;6.15;3.60;;;14.40;75.40;;;;;;2286060;55;21348;-68
2024/02/02 12:51:48;;;;;;;6.03;3.90;;;14.40;75.20;;;;;;2285644;55;21013;-69
2024/02/02 12:54:15;;;;;;;5.50;3.20;;;14.40;75.20;;;;;;2286724;55;20965;-67
2024/02/02 12:56:42;;;;;;;4.32;2.90;;;14.40;75.20;;;;;;2520212;54;20953;-69
2024/02/02 12:59:11;;;;;;;4.65;3.03;;;14.50;75.20;;;;;;2286513;55;21246;-69
2024/02/02 13:01:37;;;;;;;5.15;3.12;;;14.50;75.20;;;;;;2285261;55;21720;-68
2024/02/02 13:04:03;;;;;;;4.65;2.97;;;14.60;75.50;;;;;;2286008;55;20973;-68
2024/02/02 13:06:31;;;;;;;5.62;2.55;;;14.50;75.40;;;;;;2285771;55;21426;-69
2024/02/02 13:09:17;;;;;;;5.20;3.08;;;14.60;75.60;;;;;;2520205;54;20981;-68
2024/02/02 13:11:45;;;;;;;5.47;3.05;;;14.60;74.70;;;;;;2285682;55;21012;-69
2024/02/02 13:14:13;;;;;;;4.97;2.87;;;14.70;75.50;;;;;;2285178;55;20998;-69
2024/02/02 13:16:39;;;;;;;4.40;2.67;;;14.70;75.40;;;;;;2282716;55;20952;-69
2024/02/02 13:19:25;;;;;;;4.62;3.03;;;14.70;75.40;;;;;;2285650;55;20957;-68
2024/02/02 13:22:00;;;;;;;5.00;3.28;;;14.70;75.40;;;;;;2518185;54;21006;-67
2024/02/02 13:24:26;;;;;;;4.32;2.70;;;14.80;74.70;;;;;;2512394;54;20997;-68
2024/02/02 13:27:02;;;;;;;5.07;2.97;;;14.80;75.20;;;;;;2518670;54;20961;-70
2024/02/02 13:29:32;;;;;;;4.60;2.90;;;14.90;74.70;;;;;;2285636;55;21947;-69
2024/02/02 13:32:00;;;;;;;5.12;3.10;;;14.90;75.10;;;;;;2517473;54;21026;-69
2024/02/02 13:34:28;;;;;;;5.30;3.35;;;14.90;75.30;;;;;;2289607;55;20997;-68
2024/02/02 13:37:05;;;;;;;6.72;3.20;;;14.90;75.10;;;;;;2285960;55;21332;-70
2024/02/02 13:39:36;;;;;;;4.70;3.03;;;14.90;74.60;;;;;;2519914;54;21005;-68
2024/02/02 13:42:04;;;;;;;6.62;3.10;;;15.00;74.80;;;;;;2285728;55;20956;-68